createdAt,value
2023-10-30T00:01:27.419Z,95719.56
2023-10-30T00:03:54.277Z,95725.72
2023-10-30T00:06:21.149Z,95725.81
2023-10-30T00:08:47.892Z,95724.22
2023-10-30T00:11:14.669Z,95731.19
2023-10-30T00:13:42.821Z,95734.88
2023-10-30T00:16:09.578Z,95731.56
2023-10-30T00:18:36.287Z,95729.78
2023-10-30T00:21:03.252Z,95732.13
2023-10-30T00:23:29.948Z,95738.94
2023-10-30T00:25:56.662Z,95728.28
2023-10-30T00:28:23.381Z,95733.19
2023-10-30T00:30:51.454Z,95729.50
2023-10-30T00:33:18.207Z,95719.69
2023-10-30T00:35:44.958Z,95728.88
2023-10-30T00:38:11.618Z,95722.53
2023-10-30T00:40:38.442Z,95719.53
2023-10-30T00:43:05.097Z,95723.31
2023-10-30T00:45:31.822Z,95724.56
2023-10-30T00:47:59.873Z,95727.88
2023-10-30T00:50:26.597Z,95722.16
2023-10-30T00:52:53.272Z,95726.56
2023-10-30T00:55:20.005Z,95721.81
2023-10-30T00:57:46.661Z,95716.94
2023-10-30T01:00:13.875Z,95715.94
2023-10-30T01:02:40.915Z,95720.66
2023-10-30T01:05:09.608Z,95727.34
2023-10-30T01:07:36.386Z,95731.09
2023-10-30T01:10:03.155Z,95712.28
2023-10-30T01:12:29.813Z,95716.41
2023-10-30T01:14:57.291Z,95714.00
2023-10-30T01:17:23.959Z,95720.13
2023-10-30T01:19:50.654Z,95708.47
2023-10-30T01:22:18.671Z,95723.41
2023-10-30T01:24:45.395Z,95725.25
2023-10-30T01:27:12.058Z,95711.50
2023-10-30T01:29:38.733Z,95709.63
2023-10-30T01:32:06.113Z,95703.34
2023-10-30T01:34:32.943Z,95691.47
2023-10-30T01:36:59.664Z,95696.03
2023-10-30T01:39:27.753Z,95708.78
2023-10-30T01:41:54.463Z,95697.31
2023-10-30T01:44:21.162Z,95701.03
2023-10-30T01:46:47.846Z,95708.84
2023-10-30T01:49:14.592Z,95704.75
2023-10-30T01:51:41.700Z,95689.00
2023-10-30T01:54:08.481Z,95686.13
2023-10-30T01:56:36.496Z,95690.72
2023-10-30T01:59:03.236Z,95675.06
2023-10-30T02:01:29.955Z,95673.47
2023-10-30T02:03:56.893Z,95672.38
2023-10-30T02:06:23.627Z,95684.03
2023-10-30T02:08:50.381Z,95681.25
2023-10-30T02:11:17.080Z,95674.66
2023-10-30T02:13:53.937Z,95686.31
2023-10-30T02:16:20.961Z,95680.16
2023-10-30T02:18:47.728Z,95684.44
2023-10-30T02:21:14.474Z,95678.56
2023-10-30T02:23:41.128Z,95685.84
2023-10-30T02:26:09.136Z,95683.94
2023-10-30T02:28:35.802Z,95684.25
2023-10-30T02:31:02.508Z,95676.81
2023-10-30T02:33:29.261Z,95675.03
2023-10-30T02:35:56.129Z,95671.69
2023-10-30T02:38:22.797Z,95674.59
2023-10-30T02:40:49.530Z,95670.91
2023-10-30T02:43:17.555Z,95672.75
2023-10-30T02:45:44.289Z,95688.19
2023-10-30T02:48:11.025Z,95680.88
2023-10-30T02:50:37.818Z,95681.09
2023-10-30T02:53:05.429Z,95678.41
2023-10-30T02:55:32.406Z,95668.88
2023-10-30T02:57:59.060Z,95667.19
2023-10-30T03:00:27.143Z,95667.25
2023-10-30T03:02:53.915Z,95649.91
2023-10-30T03:05:20.794Z,95641.31
2023-10-30T03:07:47.449Z,95661.66
2023-10-30T03:10:14.285Z,95668.38
2023-10-30T03:12:41.003Z,95666.59
2023-10-30T03:15:10.223Z,95656.22
2023-10-30T03:17:38.309Z,95654.44
2023-10-30T03:20:06.254Z,95654.94
2023-10-30T03:22:32.921Z,95664.63
2023-10-30T03:24:59.650Z,95655.84
2023-10-30T03:27:26.321Z,95662.78
2023-10-30T03:29:53.056Z,95652.81
2023-10-30T03:32:19.717Z,95658.56
2023-10-30T03:34:47.804Z,95666.25
2023-10-30T03:37:14.504Z,95661.47
2023-10-30T03:39:41.268Z,95660.69
2023-10-30T03:42:07.993Z,95666.47
2023-10-30T03:44:34.770Z,95668.00
2023-10-30T03:47:02.264Z,95672.13
2023-10-30T03:49:29.006Z,95673.50
2023-10-30T03:51:56.995Z,95672.56
2023-10-30T03:54:23.746Z,95678.75
2023-10-30T03:56:50.401Z,95676.19
2023-10-30T03:59:17.100Z,95678.56
2023-10-30T04:01:43.837Z,95675.19
2023-10-30T04:04:10.708Z,95666.84
2023-10-30T04:06:37.924Z,95662.81
2023-10-30T04:09:06.216Z,95665.81
2023-10-30T04:11:32.879Z,95667.38
2023-10-30T04:13:59.583Z,95671.03
2023-10-30T04:16:26.316Z,95672.19
2023-10-30T04:18:53.063Z,95666.22
2023-10-30T04:21:19.793Z,95656.06
2023-10-30T04:23:46.548Z,95648.81
2023-10-30T04:26:14.532Z,95657.66
2023-10-30T04:28:41.192Z,95654.16
2023-10-30T04:31:07.841Z,95655.03
2023-10-30T04:33:34.583Z,95669.09
2023-10-30T04:36:02.252Z,95652.50
2023-10-30T04:38:30.346Z,95651.88
2023-10-30T04:40:57.005Z,95648.22
2023-10-30T04:43:25.004Z,95643.28
2023-10-30T04:45:51.735Z,95640.94
2023-10-30T04:48:18.549Z,95647.34
2023-10-30T04:50:45.256Z,95643.94
2023-10-30T04:53:11.936Z,95632.50
2023-10-30T04:55:38.577Z,95634.28
2023-10-30T04:58:05.274Z,95631.06
2023-10-30T05:00:33.359Z,95627.44
2023-10-30T05:03:00.137Z,95614.28
2023-10-30T05:05:26.809Z,95616.66
2023-10-30T05:07:53.580Z,95621.63
2023-10-30T05:10:20.249Z,95629.66
2023-10-30T05:12:46.925Z,95619.88
2023-10-30T05:15:13.615Z,95615.91
2023-10-30T05:17:41.686Z,95612.94
2023-10-30T05:20:09.611Z,95608.81
2023-10-30T05:22:36.309Z,95611.88
2023-10-30T05:25:03.229Z,95622.34
2023-10-30T05:27:29.987Z,95620.63
2023-10-30T05:29:56.779Z,95624.66
2023-10-30T05:32:23.490Z,95623.56
2023-10-30T05:34:51.994Z,95611.47
2023-10-30T05:37:18.680Z,95622.09
2023-10-30T05:39:45.403Z,95632.34
2023-10-30T05:42:12.112Z,95615.25
2023-10-30T05:44:38.800Z,95615.09
2023-10-30T05:47:05.896Z,95613.88
2023-10-30T05:49:32.550Z,95613.78
2023-10-30T05:52:00.629Z,95608.53
2023-10-30T05:54:27.325Z,95606.84
2023-10-30T05:56:54.136Z,95613.09
2023-10-30T05:59:20.814Z,95608.81
2023-10-30T06:01:47.556Z,95612.97
2023-10-30T06:04:14.339Z,95604.72
2023-10-30T06:06:41.204Z,95617.38
2023-10-30T06:09:09.286Z,95603.88
2023-10-30T06:11:35.972Z,95607.44
2023-10-30T06:14:02.681Z,95610.53
2023-10-30T06:16:29.477Z,95606.66
2023-10-30T06:18:56.260Z,95600.56
2023-10-30T06:21:23.022Z,95603.03
2023-10-30T06:23:49.737Z,95604.31
2023-10-30T06:26:17.789Z,95613.38
2023-10-30T06:28:44.497Z,95604.59
2023-10-30T06:31:15.054Z,95599.59
2023-10-30T06:33:42.154Z,95606.28
2023-10-30T06:36:09.070Z,95607.44
2023-10-30T06:38:35.800Z,95606.56
2023-10-30T06:41:02.618Z,95609.81
2023-10-30T06:43:30.635Z,95598.91
2023-10-30T06:46:00.244Z,95597.97
2023-10-30T06:48:26.969Z,95601.47
2023-10-30T06:50:53.696Z,95602.19
2023-10-30T06:53:20.411Z,95606.88
2023-10-30T06:55:47.079Z,95618.28
2023-10-30T06:58:13.823Z,95605.75
2023-10-30T07:00:41.894Z,95606.38
2023-10-30T07:03:08.743Z,95609.56
2023-10-30T07:05:35.594Z,95614.06
2023-10-30T07:08:02.270Z,95607.81
2023-10-30T07:10:28.940Z,95603.09
2023-10-30T07:12:55.621Z,95594.19
2023-10-30T07:15:22.375Z,95594.47
2023-10-30T07:17:50.424Z,95595.94
2023-10-30T07:20:17.179Z,95596.34
2023-10-30T07:22:43.960Z,95593.06
2023-10-30T07:25:10.623Z,95600.22
2023-10-30T07:27:37.363Z,95597.47
2023-10-30T07:30:04.581Z,95602.72
2023-10-30T07:32:31.402Z,95598.13
2023-10-30T07:34:59.544Z,95593.09
2023-10-30T07:37:26.225Z,95590.94
2023-10-30T07:39:53.016Z,95593.53
2023-10-30T07:42:19.814Z,95589.22
2023-10-30T07:44:46.506Z,95586.75
2023-10-30T07:47:14.683Z,95580.72
2023-10-30T07:49:41.524Z,95575.03
2023-10-30T07:52:09.672Z,95574.25
2023-10-30T07:54:36.422Z,95563.47
2023-10-30T07:57:03.475Z,95561.47
2023-10-30T07:59:30.145Z,95563.91
2023-10-30T08:01:56.857Z,95556.56
2023-10-30T08:04:23.723Z,95546.81
2023-10-30T08:06:50.552Z,95539.38
2023-10-30T08:09:18.610Z,95542.28
2023-10-30T08:11:45.365Z,95542.69
2023-10-30T08:14:12.173Z,95537.91
2023-10-30T08:16:38.898Z,95542.72
2023-10-30T08:19:05.679Z,95544.13
2023-10-30T08:21:32.379Z,95544.50
2023-10-30T08:23:59.090Z,95537.53
2023-10-30T08:26:27.119Z,95536.97
2023-10-30T08:28:53.788Z,95539.88
2023-10-30T08:31:20.855Z,95539.91
2023-10-30T08:33:47.551Z,95538.91
2023-10-30T08:36:21.484Z,95535.09
2023-10-30T08:38:48.195Z,95532.78
2023-10-30T08:41:15.988Z,95536.25
2023-10-30T08:43:44.101Z,95531.28
2023-10-30T08:46:11.599Z,95531.00
2023-10-30T08:48:38.402Z,95544.28
2023-10-30T08:51:05.362Z,95536.22
2023-10-30T08:53:32.078Z,95530.84
2023-10-30T08:55:59.167Z,95531.66
2023-10-30T08:58:26.938Z,95518.75
2023-10-30T09:00:54.967Z,95532.34
2023-10-30T09:03:21.866Z,95539.13
2023-10-30T09:05:48.992Z,95539.03
2023-10-30T09:08:15.859Z,95540.91
2023-10-30T09:10:42.643Z,95541.84
2023-10-30T09:13:09.346Z,95540.16
2023-10-30T09:15:36.035Z,95543.25
2023-10-30T09:18:04.195Z,95545.31
2023-10-30T09:20:30.923Z,95541.34
2023-10-30T09:22:57.640Z,95544.22
2023-10-30T09:25:24.377Z,95547.41
2023-10-30T09:27:51.112Z,95552.09
2023-10-30T09:30:18.081Z,95549.81
2023-10-30T09:32:44.844Z,95538.00
2023-10-30T09:35:12.921Z,95538.66
2023-10-30T09:37:39.624Z,95561.75
2023-10-30T09:40:07.695Z,95561.34
2023-10-30T09:42:34.670Z,95570.63
2023-10-30T09:45:01.352Z,95569.72
2023-10-30T09:47:28.034Z,95560.94
2023-10-30T09:49:54.863Z,95543.00
2023-10-30T09:52:22.922Z,95571.66
2023-10-30T09:54:50.101Z,95586.44
2023-10-30T09:57:17.056Z,95584.03
2023-10-30T09:59:43.710Z,95617.22
2023-10-30T10:02:10.722Z,95583.13
2023-10-30T10:04:38.626Z,95589.78
2023-10-30T10:07:05.642Z,95560.13
2023-10-30T10:09:33.752Z,95559.88
2023-10-30T10:12:00.492Z,95547.38
2023-10-30T10:14:30.762Z,95506.47
2023-10-30T10:17:00.565Z,95516.81
2023-10-30T10:19:27.892Z,95557.19
2023-10-30T10:21:54.721Z,95582.44
2023-10-30T10:24:28.507Z,95589.22
2023-10-30T10:26:59.601Z,95594.25
2023-10-30T10:29:26.311Z,95591.53
2023-10-30T10:31:53.086Z,95619.25
2023-10-30T10:34:20.227Z,95608.13
2023-10-30T10:36:47.537Z,95570.59
2023-10-30T10:39:14.296Z,95587.63
2023-10-30T10:41:40.958Z,95587.41
2023-10-30T10:44:09.666Z,95577.28
2023-10-30T10:46:38.645Z,95560.84
2023-10-30T10:49:05.820Z,95539.84
2023-10-30T10:51:34.498Z,95535.47
2023-10-30T10:54:03.753Z,95529.09
2023-10-30T10:56:30.582Z,95528.28
2023-10-30T10:59:01.351Z,95520.53
2023-10-30T11:01:29.566Z,95506.50
2023-10-30T11:03:56.351Z,95503.91
2023-10-30T11:06:23.091Z,95504.16
2023-10-30T11:08:53.705Z,95481.16
2023-10-30T11:11:27.040Z,95471.16
2023-10-30T11:14:10.017Z,95475.03
2023-10-30T11:16:41.618Z,95466.44
2023-10-30T11:19:08.394Z,95462.16
2023-10-30T11:21:35.112Z,95443.84
2023-10-30T11:24:03.434Z,95434.13
2023-10-30T11:26:37.245Z,95421.66
2023-10-30T11:29:05.321Z,95398.13
2023-10-30T11:31:32.275Z,95394.50
2023-10-30T11:34:07.914Z,95397.69
2023-10-30T11:36:35.466Z,95388.84
2023-10-30T11:39:08.512Z,95378.88
2023-10-30T11:41:37.173Z,95366.31
2023-10-30T11:44:07.883Z,95364.28
2023-10-30T11:46:38.712Z,95357.81
2023-10-30T11:49:08.690Z,95357.41
2023-10-30T11:51:36.113Z,95348.88
2023-10-30T11:54:02.864Z,95346.00
2023-10-30T11:56:29.671Z,95338.28
2023-10-30T11:58:56.343Z,95325.97
2023-10-30T12:01:23.091Z,95318.69
2023-10-30T12:03:49.820Z,95305.50
2023-10-30T12:06:17.952Z,95300.13
2023-10-30T12:08:44.677Z,95295.41
2023-10-30T12:11:11.456Z,95297.91
2023-10-30T12:13:38.449Z,95297.59
2023-10-30T12:16:05.762Z,95307.50
2023-10-30T12:18:32.478Z,95330.78
2023-10-30T12:20:59.227Z,95349.00
2023-10-30T12:23:27.278Z,95371.41
2023-10-30T12:26:03.461Z,95391.59
2023-10-30T12:28:35.356Z,95416.84
2023-10-30T12:31:16.629Z,95411.06
2023-10-30T12:33:43.376Z,95411.66
2023-10-30T12:36:10.080Z,95400.25
2023-10-30T12:38:38.263Z,95392.44
2023-10-30T12:41:05.256Z,95389.31
2023-10-30T12:43:34.608Z,95391.41
2023-10-30T12:46:01.377Z,95377.72
2023-10-30T12:48:28.115Z,95373.97
2023-10-30T12:50:54.793Z,95378.78
2023-10-30T12:53:21.496Z,95389.19
2023-10-30T12:55:49.520Z,95407.03
2023-10-30T12:58:16.216Z,95400.34
2023-10-30T13:00:43.986Z,95413.41
2023-10-30T13:03:29.647Z,95396.00
2023-10-30T13:05:56.766Z,95388.53
2023-10-30T13:08:23.456Z,95383.06
2023-10-30T13:10:51.459Z,95364.13
2023-10-30T13:13:18.128Z,95366.03
2023-10-30T13:15:44.882Z,95367.16
2023-10-30T13:18:11.605Z,95367.25
2023-10-30T13:20:38.275Z,95358.94
2023-10-30T13:23:04.976Z,95338.91
2023-10-30T13:25:31.685Z,95332.69
2023-10-30T13:27:59.774Z,95334.75
2023-10-30T13:30:26.628Z,95344.16
2023-10-30T13:32:53.428Z,95364.50
2023-10-30T13:35:20.136Z,95364.44
2023-10-30T13:37:46.821Z,95369.41
2023-10-30T13:40:13.634Z,95378.00
2023-10-30T13:42:40.467Z,95379.19
2023-10-30T13:45:09.201Z,95383.34
2023-10-30T13:47:35.899Z,95389.19
2023-10-30T13:50:02.698Z,95385.91
2023-10-30T13:52:29.439Z,95384.97
2023-10-30T13:54:56.225Z,95384.97
2023-10-30T13:57:23.092Z,95385.47
2023-10-30T13:59:49.914Z,95392.31
2023-10-30T14:02:18.144Z,95396.91
2023-10-30T14:04:46.358Z,95409.56
2023-10-30T14:07:13.307Z,95423.31
2023-10-30T14:09:40.140Z,95430.72
2023-10-30T14:12:07.442Z,95444.69
2023-10-30T14:14:34.098Z,95441.09
2023-10-30T14:17:00.772Z,95442.69
2023-10-30T14:19:29.848Z,95465.41
2023-10-30T14:21:59.530Z,95461.00
2023-10-30T14:24:26.218Z,95455.72
2023-10-30T14:26:52.857Z,95431.78
2023-10-30T14:29:19.573Z,95430.38
2023-10-30T14:31:46.266Z,95435.75
2023-10-30T14:34:13.066Z,95415.97
2023-10-30T14:36:41.125Z,95412.25
2023-10-30T14:39:07.898Z,95415.78
2023-10-30T14:41:34.634Z,95425.06
2023-10-30T14:44:01.349Z,95441.13
2023-10-30T14:46:28.108Z,95438.34
2023-10-30T14:48:54.892Z,95436.56
2023-10-30T14:51:21.627Z,95450.09
2023-10-30T14:53:49.803Z,95444.84
2023-10-30T14:56:16.543Z,95433.88
2023-10-30T14:58:43.344Z,95444.75
2023-10-30T15:01:10.173Z,95445.38
2023-10-30T15:03:37.230Z,95448.44
2023-10-30T15:06:04.518Z,95448.00
2023-10-30T15:08:31.264Z,95450.44
2023-10-30T15:10:59.304Z,95449.88
2023-10-30T15:13:26.006Z,95455.69
2023-10-30T15:15:52.843Z,95465.53
2023-10-30T15:18:19.668Z,95462.34
2023-10-30T15:20:46.483Z,95465.34
2023-10-30T15:23:13.280Z,95456.47
2023-10-30T15:25:40.015Z,95464.63
2023-10-30T15:28:08.189Z,95457.84
2023-10-30T15:30:34.924Z,95461.31
2023-10-30T15:33:01.748Z,95455.63
2023-10-30T15:35:28.450Z,95447.75
2023-10-30T15:37:55.185Z,95438.09
2023-10-30T15:40:21.970Z,95453.75
2023-10-30T15:42:48.740Z,95446.47
2023-10-30T15:45:16.969Z,95448.66
2023-10-30T15:47:43.823Z,95443.78
2023-10-30T15:50:11.268Z,95439.19
2023-10-30T15:57:37.121Z,95444.50
2023-10-30T16:00:04.608Z,95444.25
2023-10-30T16:02:40.353Z,95442.25
2023-10-30T16:05:07.821Z,95431.25
2023-10-30T16:07:34.810Z,95433.13
2023-10-30T16:12:31.067Z,95431.44
2023-10-30T16:14:57.819Z,95431.81
2023-10-30T16:17:24.603Z,95434.91
2023-10-30T16:22:22.224Z,95443.16
2023-10-30T16:24:48.898Z,95450.84
2023-10-30T16:27:15.577Z,95436.72
2023-10-30T16:29:42.259Z,95445.50
2023-10-30T16:32:08.949Z,95441.91
2023-10-30T16:34:35.657Z,95460.44
2023-10-30T16:37:03.987Z,95461.44
2023-10-30T16:39:30.705Z,95467.31
2023-10-30T16:41:57.415Z,95467.03
2023-10-30T16:44:24.062Z,95467.41
2023-10-30T16:46:50.864Z,95469.19
2023-10-30T16:49:17.621Z,95469.59
2023-10-30T16:51:44.412Z,95468.88
2023-10-30T16:54:12.756Z,95470.16
2023-10-30T16:56:39.490Z,95474.75
2023-10-30T16:59:06.175Z,95490.59
2023-10-30T17:01:32.900Z,95487.09
2023-10-30T17:03:59.600Z,95491.09
2023-10-30T17:06:26.331Z,95493.69
2023-10-30T17:08:53.010Z,95501.84
2023-10-30T17:11:21.084Z,95502.84
2023-10-30T17:13:47.790Z,95506.91
2023-10-30T17:16:14.509Z,95498.06
2023-10-30T17:18:41.215Z,95510.28
2023-10-30T17:21:07.981Z,95510.97
2023-10-30T17:23:34.697Z,95518.75
2023-10-30T17:26:01.565Z,95519.53
2023-10-30T17:28:29.596Z,95523.22
2023-10-30T17:30:56.359Z,95536.63
2023-10-30T17:33:23.062Z,95533.03
2023-10-30T17:35:49.786Z,95534.03
2023-10-30T17:38:16.490Z,95533.06
2023-10-30T17:40:43.212Z,95539.63
2023-10-30T17:43:09.935Z,95540.91
2023-10-30T17:45:37.948Z,95547.28
2023-10-30T17:48:05.246Z,95561.22
2023-10-30T17:50:31.915Z,95562.09
2023-10-30T17:52:58.626Z,95565.03
2023-10-30T17:55:25.486Z,95566.56
2023-10-30T17:57:52.384Z,95554.69
2023-10-30T18:00:19.400Z,95566.22
2023-10-30T18:02:47.517Z,95570.75
2023-10-30T18:05:14.318Z,95573.22
2023-10-30T18:07:41.056Z,95576.81
2023-10-30T18:10:08.409Z,95570.09
2023-10-30T18:12:35.081Z,95580.91
2023-10-30T18:15:01.778Z,95571.78
2023-10-30T18:17:28.456Z,95573.19
2023-10-30T18:19:56.501Z,95571.13
2023-10-30T18:22:23.177Z,95568.44
2023-10-30T18:24:50.017Z,95564.38
2023-10-30T18:27:16.875Z,95562.16
2023-10-30T18:29:44.054Z,95556.03
2023-10-30T18:32:10.769Z,95556.81
2023-10-30T18:34:37.507Z,95548.97
2023-10-30T18:37:05.656Z,95550.28
2023-10-30T18:39:32.299Z,95550.66
2023-10-30T18:41:58.994Z,95551.97
2023-10-30T18:44:25.701Z,95537.66
2023-10-30T18:46:52.431Z,95540.19
2023-10-30T18:49:19.116Z,95548.75
2023-10-30T18:51:45.807Z,95539.72
2023-10-30T18:54:13.784Z,95523.03
2023-10-30T18:56:40.465Z,95496.88
2023-10-30T18:59:07.200Z,95500.06
2023-10-30T19:01:34.138Z,95480.66
2023-10-30T19:04:00.929Z,95469.41
2023-10-30T19:06:27.603Z,95496.97
2023-10-30T19:08:54.290Z,95529.63
2023-10-30T19:11:22.304Z,95542.75
2023-10-30T19:13:49.182Z,95553.38
2023-10-30T19:16:16.001Z,95551.31
2023-10-30T19:18:42.782Z,95546.22
2023-10-30T19:21:09.444Z,95549.41
2023-10-30T19:23:36.217Z,95559.66
2023-10-30T19:26:03.084Z,95569.72
2023-10-30T19:28:31.186Z,95568.34
2023-10-30T19:30:57.900Z,95570.13
2023-10-30T19:33:24.586Z,95573.28
2023-10-30T19:35:51.289Z,95570.72
2023-10-30T19:38:17.980Z,95574.69
2023-10-30T19:40:44.739Z,95577.50
2023-10-30T19:43:11.481Z,95578.38
2023-10-30T19:45:39.512Z,95564.75
2023-10-30T19:48:07.055Z,95572.19
2023-10-30T19:50:34.032Z,95577.50
2023-10-30T19:53:00.837Z,95585.03
2023-10-30T19:55:27.570Z,95584.63
2023-10-30T19:57:54.264Z,95575.88
2023-10-30T20:00:21.043Z,95574.28
2023-10-30T20:02:49.780Z,95574.09
2023-10-30T20:05:16.837Z,95591.78
2023-10-30T20:07:43.699Z,95589.31
2023-10-30T20:10:22.281Z,95584.94
2023-10-30T20:12:57.623Z,95599.94
2023-10-30T20:15:24.946Z,95600.25
2023-10-30T20:17:53.138Z,95601.63
2023-10-30T20:20:19.864Z,95606.84
2023-10-30T20:22:46.559Z,95601.75
2023-10-30T20:25:13.773Z,95604.34
2023-10-30T20:27:40.647Z,95604.84
2023-10-30T20:30:08.648Z,95610.91
2023-10-30T20:32:35.560Z,95613.91
2023-10-30T20:35:04.234Z,95606.50
2023-10-30T20:37:31.434Z,95600.50
2023-10-30T20:39:58.321Z,95605.28
2023-10-30T20:42:25.408Z,95598.16
2023-10-30T20:44:52.476Z,95604.41
2023-10-30T20:47:19.491Z,95601.53
2023-10-30T20:49:46.267Z,95609.56
2023-10-30T20:52:14.312Z,95614.94
2023-10-30T20:54:41.049Z,95618.94
2023-10-30T20:57:07.737Z,95616.41
2023-10-30T20:59:34.385Z,95622.91
2023-10-30T21:02:01.156Z,95632.63
2023-10-30T21:04:27.931Z,95637.53
2023-10-30T21:06:54.643Z,95641.59
2023-10-30T21:09:22.641Z,95645.31
2023-10-30T21:11:49.359Z,95650.44
2023-10-30T21:14:16.008Z,95650.44
2023-10-30T21:16:42.916Z,95660.09
2023-10-30T21:19:09.666Z,95662.59
2023-10-30T21:21:36.474Z,95665.03
2023-10-30T21:24:03.310Z,95678.47
2023-10-30T21:26:31.329Z,95663.56
2023-10-30T21:28:58.044Z,95672.88
2023-10-30T21:31:24.845Z,95674.19
2023-10-30T21:33:51.595Z,95677.19
2023-10-30T21:36:18.317Z,95669.22
2023-10-30T21:38:45.026Z,95664.22
2023-10-30T21:41:11.782Z,95660.47
2023-10-30T21:43:39.856Z,95663.06
2023-10-30T21:46:06.735Z,95660.41
2023-10-30T21:48:33.434Z,95667.50
2023-10-30T21:51:00.161Z,95669.16
2023-10-30T21:53:26.860Z,95663.66
2023-10-30T21:55:53.602Z,95655.41
2023-10-30T21:58:20.245Z,95655.91
2023-10-30T22:00:48.513Z,95654.38
2023-10-30T22:03:15.240Z,95664.31
2023-10-30T22:05:41.992Z,95660.91
2023-10-30T22:08:08.702Z,95667.72
2023-10-30T22:10:35.616Z,95670.25
2023-10-30T22:13:02.260Z,95674.47
2023-10-30T22:15:29.063Z,95676.50
2023-10-30T22:17:57.137Z,95691.44
2023-10-30T22:20:23.902Z,95686.78
2023-10-30T22:22:50.760Z,95688.22
2023-10-30T22:25:17.496Z,95692.22
2023-10-30T22:27:44.183Z,95695.78
2023-10-30T22:30:11.301Z,95691.88
2023-10-30T22:32:40.281Z,95697.97
2023-10-30T22:35:09.026Z,95699.38
2023-10-30T22:37:36.028Z,95691.03
2023-10-30T22:40:03.208Z,95697.34
2023-10-30T22:42:29.933Z,95695.31
2023-10-30T22:44:56.622Z,95702.59
2023-10-30T22:47:23.334Z,95698.75
2023-10-30T22:49:50.074Z,95707.91
2023-10-30T22:52:18.211Z,95714.88
2023-10-30T22:54:45.110Z,95717.19
2023-10-30T22:57:11.750Z,95727.50
2023-10-30T22:59:38.511Z,95731.91
2023-10-30T23:02:05.523Z,95732.66
2023-10-30T23:04:32.317Z,95734.97
2023-10-30T23:06:58.964Z,95744.84
2023-10-30T23:09:27.041Z,95738.09
2023-10-30T23:11:53.727Z,95742.59
2023-10-30T23:14:20.543Z,95752.81
2023-10-30T23:16:47.277Z,95753.69
2023-10-30T23:19:14.016Z,95765.31
2023-10-30T23:21:40.801Z,95770.69
2023-10-30T23:24:08.135Z,95769.44
2023-10-30T23:26:36.122Z,95775.38
2023-10-30T23:29:02.796Z,95767.25
2023-10-30T23:31:29.468Z,95771.38
2023-10-30T23:33:56.162Z,95765.28
2023-10-30T23:36:22.925Z,95772.31
2023-10-30T23:38:49.629Z,95782.03
2023-10-30T23:41:16.296Z,95784.72
2023-10-30T23:43:44.388Z,95779.94
2023-10-30T23:46:11.122Z,95782.34
2023-10-30T23:48:37.849Z,95790.25
2023-10-30T23:51:04.617Z,95791.84
2023-10-30T23:53:31.380Z,95784.56
2023-10-30T23:55:58.130Z,95788.56
2023-10-30T23:58:24.872Z,95786.56
